메인 페이지
METAR-TAF:

METAR-TAF

공항 :

룩셈부르크 핀델 국제공항

룩셈부르크, 룩셈부르크

위도: 49-37N, 경도: 006-13E, 고도: 376m

현재 날씨관측

예보는 20분 전, 22:50시(UTC)에 발표되었습니다.
3kt
온도 14°C
습도 67%
기압 999 hPa
시정 10km 이상
1500m 미만 상공 구름 및 적란운 없음

METAR: ELLX 232250Z 18003KT CAVOK 14/08 Q0999 NOSIG

시각: 01:10 (23:10 UTC)

예보

예보는 6 시간 10분 전, 17:00시(UTC)에 발표되었습니다.
예보 대상 시간: 23일 18시부터 24일 24시까지 (UTC)
남동7kt
시정 10km 이상
1500m 미만 상공 구름 및 적란운 없음
전환 중
24일 06시부터 24일 09시까지 (UTC)
12kt
전환 중
24일 09시부터 24일 12시까지 (UTC)
고도 4000ft 상공 구름 보통, 타워링 적운.
일시적
24일 12시부터 24일 18시까지 (UTC)
남남서15kt, 순간 최대 풍속 25kt
고도 2000ft 상공 구름 보통
고도 4000ft 상공 구름 많음, 적란운.
소나기
확률 40% :
일시적
24일 12시부터 24일 18시까지 (UTC)
남남서25kt, 순간 최대 풍속 35kt
시정: 3000m
고도 1000ft 상공 구름 보통
고도 2000ft 상공 구름 많음, 적란운.
뇌우, 비, 우박
전환 중
24일 20시부터 24일 23시까지 (UTC)
남동7kt

TAF: ELLX 231700Z 2318/2424 14007KT CAVOK BECMG 2406/2409 19012KT BECMG 2409/2412 SCT040TCU TEMPO 2412/2418 21015G25KT SHRA SCT020 BKN040CB PROB40 TEMPO 2412/2418 21025G35KT 3000 TSRAGR SCT010 BKN020CB BECMG 2420/2423 14007KT

4,000개 이상의 공항 관측 자료 및 예보 (METAR 및 TAF 보고).

지도상에서 검색 가능한 기상관측소가 노란 점과 빨간 점으로 표시되어 있습니다.

기상관측소 명을 보려면 표시 위로 마우스를 이동하세요.

날씨 관측과 예보를 보려면 클릭하세요.

지도 변경 : 확대하려면 엑스 표시가 있는 녹색 버튼, 축소하려면 빼기 표시가 있는 녹색 버튼, 다음 페이지의 지도를 보려면 녹색 화살표를 클릭하세요.


METAR-TAF: